createdAt,value
2022-12-29T00:01:28.701Z,98435.52
2022-12-29T00:04:17.265Z,98435.19
2022-12-29T00:07:06.013Z,98436.66
2022-12-29T00:09:54.565Z,98441.15
2022-12-29T00:13:01.431Z,98449.50
2022-12-29T00:15:49.921Z,98461.59
2022-12-29T00:18:38.411Z,98467.52
2022-12-29T00:21:45.791Z,98479.91
2022-12-29T00:24:52.617Z,98487.77
2022-12-29T00:28:06.423Z,98491.60
2022-12-29T00:31:17.375Z,98497.95
2022-12-29T00:34:26.090Z,98502.81
2022-12-29T00:37:14.712Z,98510.62
2022-12-29T00:40:21.439Z,98511.56
2022-12-29T00:43:28.477Z,98514.05
2022-12-29T00:46:20.051Z,98518.80
2022-12-29T00:49:28.513Z,98519.61
2022-12-29T00:52:17.022Z,98518.97
2022-12-29T00:55:07.725Z,98524.30
2022-12-29T00:57:56.369Z,98525.70
2022-12-29T01:00:44.934Z,98527.85
2022-12-29T01:03:35.169Z,98526.88
2022-12-29T01:06:23.944Z,98528.16
2022-12-29T01:09:31.021Z,98531.35
2022-12-29T01:12:40.655Z,98538.23
2022-12-29T01:15:31.037Z,98542.23
2022-12-29T01:18:19.508Z,98541.93
2022-12-29T01:21:07.952Z,98545.63
2022-12-29T01:23:56.577Z,98547.21
2022-12-29T01:26:45.141Z,98550.98
2022-12-29T01:29:33.629Z,98553.12
2022-12-29T01:32:22.101Z,98548.34
2022-12-29T01:35:11.216Z,98546.35
2022-12-29T01:37:59.736Z,98547.86
2022-12-29T01:40:49.101Z,98548.55
2022-12-29T01:43:41.753Z,98551.98
2022-12-29T01:46:31.872Z,98557.48
2022-12-29T01:49:23.392Z,98559.08
2022-12-29T01:52:11.964Z,98567.52
2022-12-29T01:55:02.938Z,98568.23
2022-12-29T01:57:54.049Z,98565.27
2022-12-29T02:00:42.631Z,98571.44
2022-12-29T02:03:33.040Z,98579.48
2022-12-29T02:06:22.903Z,98586.63
2022-12-29T02:09:11.025Z,98599.63
2022-12-29T02:11:59.770Z,98606.04
2022-12-29T02:14:48.885Z,98597.05
2022-12-29T02:17:51.317Z,98601.71
2022-12-29T02:20:52.296Z,98602.21
2022-12-29T02:23:57.946Z,98605.64
2022-12-29T02:26:50.736Z,98604.65
2022-12-29T02:29:51.502Z,98605.64
2022-12-29T02:32:44.800Z,98604.99
2022-12-29T02:35:36.809Z,98615.31
2022-12-29T02:38:32.320Z,98617.17
2022-12-29T02:41:24.135Z,98614.60
2022-12-29T02:44:15.604Z,98627.42
2022-12-29T02:47:10.864Z,98618.86
2022-12-29T02:50:02.836Z,98627.49
2022-12-29T02:52:53.803Z,98635.23
2022-12-29T02:55:49.397Z,98642.15
2022-12-29T02:58:37.764Z,98647.52
2022-12-29T03:01:33.660Z,98651.98
2022-12-29T03:04:30.752Z,98652.13
2022-12-29T03:07:23.981Z,98653.63
2022-12-29T03:10:20.577Z,98655.42
2022-12-29T03:13:31.917Z,98662.09
2022-12-29T03:16:23.131Z,98668.23
2022-12-29T03:19:15.678Z,98668.01
2022-12-29T03:22:24.483Z,98670.27
2022-12-29T03:25:21.989Z,98689.56
2022-12-29T03:28:12.991Z,98685.08
2022-12-29T03:31:05.545Z,98691.57
2022-12-29T03:33:56.554Z,98699.95
2022-12-29T03:36:48.777Z,98709.15
2022-12-29T03:39:37.728Z,98719.09
2022-12-29T03:42:27.415Z,98730.65
2022-12-29T03:45:15.855Z,98741.62
2022-12-29T03:48:04.934Z,98752.90
2022-12-29T03:50:54.019Z,98752.81
2022-12-29T03:53:42.636Z,98750.59
2022-12-29T03:56:31.437Z,98760.07
2022-12-29T03:59:20.371Z,98761.61
2022-12-29T04:02:09.217Z,98770.23
2022-12-29T04:04:57.869Z,98775.58
2022-12-29T04:07:46.409Z,98780.76
2022-12-29T04:10:35.994Z,98795.33
2022-12-29T04:13:26.947Z,98797.85
2022-12-29T04:16:15.598Z,98802.27
2022-12-29T04:19:04.316Z,98800.18
2022-12-29T04:21:54.712Z,98804.86
2022-12-29T04:24:43.344Z,98806.17
2022-12-29T04:27:33.696Z,98813.89
2022-12-29T04:30:45.839Z,98819.82
2022-12-29T04:33:39.710Z,98829.51
2022-12-29T04:36:30.332Z,98828.14
2022-12-29T04:39:19.265Z,98835.57
2022-12-29T04:42:07.946Z,98845.97
2022-12-29T04:44:56.469Z,98837.05
2022-12-29T04:47:58.791Z,98843.83
2022-12-29T04:51:06.168Z,98843.33
2022-12-29T04:53:59.840Z,98854.78
2022-12-29T04:56:53.577Z,98852.66
2022-12-29T04:59:42.283Z,98862.67
2022-12-29T05:02:31.065Z,98862.88
2022-12-29T05:05:20.691Z,98858.86
2022-12-29T05:08:12.068Z,98863.98
2022-12-29T05:11:00.726Z,98877.98
2022-12-29T05:13:49.506Z,98870.30
2022-12-29T05:16:39.443Z,98875.20
2022-12-29T05:19:27.942Z,98878.44
2022-12-29T05:22:16.582Z,98879.86
2022-12-29T05:25:07.994Z,98873.11
2022-12-29T05:28:07.310Z,98876.67
2022-12-29T05:31:06.709Z,98879.83
2022-12-29T05:33:56.207Z,98878.15
2022-12-29T05:36:44.932Z,98877.44
2022-12-29T05:39:34.141Z,98880.70
2022-12-29T05:42:25.132Z,98884.33
2022-12-29T05:45:20.124Z,98884.66
2022-12-29T05:48:33.026Z,98893.89
2022-12-29T05:51:46.331Z,98901.36
2022-12-29T05:54:35.284Z,98901.58
2022-12-29T05:57:25.814Z,98895.96
2022-12-29T06:00:25.163Z,98896.58
2022-12-29T06:03:14.486Z,98902.06
2022-12-29T06:06:04.022Z,98892.54
2022-12-29T06:08:52.698Z,98900.10
2022-12-29T06:11:41.838Z,98908.36
2022-12-29T06:14:30.453Z,98907.66
2022-12-29T06:17:20.450Z,98910.68
2022-12-29T06:20:11.481Z,98908.66
2022-12-29T06:22:59.896Z,98909.63
2022-12-29T06:25:49.235Z,98908.55
2022-12-29T06:28:37.718Z,98913.00
2022-12-29T06:31:26.496Z,98910.48
2022-12-29T06:34:15.225Z,98911.08
2022-12-29T06:37:03.757Z,98914.80
2022-12-29T06:39:52.205Z,98911.55
2022-12-29T06:42:43.104Z,98918.23
2022-12-29T06:45:48.034Z,98926.64
2022-12-29T06:48:36.604Z,98919.65
2022-12-29T06:51:25.076Z,98919.61
2022-12-29T06:54:13.894Z,98918.65
2022-12-29T06:57:02.734Z,98931.52
2022-12-29T06:59:51.135Z,98943.14
2022-12-29T07:02:39.797Z,98944.09
2022-12-29T07:05:28.594Z,98947.80
2022-12-29T07:08:17.082Z,98952.64
2022-12-29T07:11:05.824Z,98955.34
2022-12-29T07:13:54.303Z,98954.44
2022-12-29T07:16:42.912Z,98962.43
2022-12-29T07:19:31.565Z,98958.52
2022-12-29T07:22:20.073Z,98959.19
2022-12-29T07:25:09.467Z,98964.27
2022-12-29T07:27:57.975Z,98963.89
2022-12-29T07:30:47.767Z,98968.72
2022-12-29T07:33:37.471Z,98971.98
2022-12-29T07:36:30.760Z,98970.13
2022-12-29T07:39:22.627Z,98970.45
2022-12-29T07:42:11.112Z,98969.80
2022-12-29T07:45:04.650Z,98967.70
2022-12-29T07:47:57.103Z,98974.68
2022-12-29T07:50:45.645Z,98982.89
2022-12-29T07:53:34.137Z,98982.79
2022-12-29T07:56:22.634Z,98977.39
2022-12-29T07:59:12.502Z,98978.75
2022-12-29T08:02:01.477Z,98980.05
2022-12-29T08:04:49.550Z,98987.81
2022-12-29T08:07:37.980Z,98985.83
2022-12-29T08:10:26.395Z,98985.83
2022-12-29T08:13:15.278Z,98984.68
2022-12-29T08:16:03.964Z,98989.75
2022-12-29T08:18:52.279Z,99010.19
2022-12-29T08:21:40.719Z,99014.95
2022-12-29T08:24:29.074Z,99006.83
2022-12-29T08:27:20.719Z,99017.88
2022-12-29T08:30:11.093Z,99021.99
2022-12-29T08:32:59.502Z,99022.81
2022-12-29T08:35:47.862Z,99003.20
2022-12-29T08:38:36.224Z,99006.83
2022-12-29T08:41:24.670Z,99026.06
2022-12-29T08:44:13.103Z,99019.29
2022-12-29T08:47:01.499Z,99019.36
2022-12-29T08:49:49.854Z,99019.90
2022-12-29T08:52:38.257Z,99024.89
2022-12-29T08:55:26.609Z,99024.53
2022-12-29T08:58:16.966Z,99029.17
2022-12-29T09:01:06.290Z,99036.95
2022-12-29T09:07:03.155Z,99050.64
2022-12-29T09:09:51.476Z,99048.95
2022-12-29T09:12:39.904Z,99058.27
2022-12-29T09:15:28.464Z,99067.11
2022-12-29T09:18:20.611Z,99069.87
2022-12-29T09:21:11.219Z,99090.69
2022-12-29T09:23:59.531Z,99109.62
2022-12-29T09:26:47.904Z,99111.80
2022-12-29T09:29:36.385Z,99112.70
2022-12-29T09:32:27.488Z,99113.85
2022-12-29T09:35:18.370Z,99123.64
2022-12-29T09:38:06.725Z,99125.23
2022-12-29T09:40:56.648Z,99127.93
2022-12-29T09:43:56.957Z,99124.38
2022-12-29T09:46:47.184Z,99125.38
2022-12-29T09:49:42.866Z,99117.14
2022-12-29T09:52:32.943Z,99124.86
2022-12-29T09:55:22.282Z,99127.61
2022-12-29T09:58:13.109Z,99120.89
2022-12-29T10:01:03.518Z,99136.53
2022-12-29T10:03:53.657Z,99145.45
2022-12-29T10:07:19.306Z,99163.58
2022-12-29T10:09:56.467Z,99166.92
2022-12-29T10:12:53.297Z,99160.70
2022-12-29T10:15:47.427Z,99167.26
2022-12-29T10:18:52.399Z,99167.48
2022-12-29T10:21:48.703Z,99172.94
2022-12-29T10:24:39.277Z,99181.55
2022-12-29T10:27:27.681Z,99186.79
2022-12-29T10:30:16.324Z,99171.02
2022-12-29T10:33:07.108Z,99193.07
2022-12-29T10:35:55.733Z,99197.22
2022-12-29T10:38:47.621Z,99186.02
2022-12-29T10:41:39.174Z,99198.84
2022-12-29T10:44:30.750Z,99210.10
2022-12-29T10:47:21.841Z,99225.13
2022-12-29T10:50:13.402Z,99229.88
2022-12-29T10:53:03.201Z,99236.35
2022-12-29T10:55:51.437Z,99242.52
2022-12-29T10:58:41.682Z,99249.45
2022-12-29T11:01:36.066Z,99258.65
2022-12-29T11:04:34.534Z,99270.05
2022-12-29T11:07:27.327Z,99262.13
2022-12-29T11:10:21.122Z,99255.26
2022-12-29T11:13:13.808Z,99253.39
2022-12-29T11:16:03.356Z,99254.52
2022-12-29T11:18:51.883Z,99254.11
2022-12-29T11:21:42.365Z,99263.61
2022-12-29T11:24:30.640Z,99261.55
2022-12-29T11:27:21.139Z,99264.42
2022-12-29T11:30:23.086Z,99261.64
2022-12-29T11:33:11.264Z,99274.86
2022-12-29T11:36:02.510Z,99283.67
2022-12-29T11:38:52.038Z,99283.73
2022-12-29T11:41:40.651Z,99285.45
2022-12-29T11:44:32.617Z,99289.34
2022-12-29T11:47:26.563Z,99301.09
2022-12-29T11:50:18.941Z,99305.20
2022-12-29T11:53:14.531Z,99309.73
2022-12-29T11:56:05.327Z,99302.73
2022-12-29T11:58:54.110Z,99306.89
2022-12-29T12:01:43.956Z,99309.08
2022-12-29T12:04:36.460Z,99300.99
2022-12-29T12:07:30.488Z,99290.52
2022-12-29T12:10:22.984Z,99278.77
2022-12-29T12:13:18.822Z,99284.13
2022-12-29T12:16:10.463Z,99273.13
2022-12-29T12:19:02.988Z,99281.02
2022-12-29T12:21:56.352Z,99280.79
2022-12-29T12:24:48.375Z,99291.84
2022-12-29T12:27:40.977Z,99285.69
2022-12-29T12:30:33.155Z,99304.94
2022-12-29T12:33:25.707Z,99310.98
2022-12-29T12:36:29.723Z,99319.84
2022-12-29T12:39:26.543Z,99325.29
2022-12-29T12:42:23.219Z,99332.75
2022-12-29T12:45:30.282Z,99339.52
2022-12-29T12:48:32.364Z,99350.43
2022-12-29T12:51:26.574Z,99355.80
2022-12-29T12:54:22.187Z,99350.39
2022-12-29T12:57:16.252Z,99355.34
2022-12-29T13:00:08.682Z,99365.08
2022-12-29T13:03:06.940Z,99364.19
2022-12-29T13:06:10.689Z,99364.00
2022-12-29T13:09:16.156Z,99377.64
2022-12-29T13:12:10.707Z,99381.23
2022-12-29T13:15:06.458Z,99398.27
2022-12-29T13:17:58.782Z,99404.99
2022-12-29T13:20:48.568Z,99406.05
2022-12-29T13:23:41.211Z,99410.68
2022-12-29T13:26:33.805Z,99420.98
2022-12-29T13:29:27.655Z,99425.88
2022-12-29T13:32:33.876Z,99423.23
2022-12-29T13:35:29.358Z,99430.20
2022-12-29T13:38:20.865Z,99441.02
2022-12-29T13:41:10.001Z,99448.08
2022-12-29T13:43:59.363Z,99459.85
2022-12-29T13:46:47.888Z,99467.23
2022-12-29T13:49:36.966Z,99455.52
2022-12-29T13:52:29.561Z,99462.23
2022-12-29T13:55:27.307Z,99466.36
2022-12-29T13:58:18.995Z,99468.76
2022-12-29T14:01:11.545Z,99469.66
2022-12-29T14:04:01.013Z,99477.23
2022-12-29T14:07:00.314Z,99481.92
2022-12-29T14:09:51.768Z,99477.65
2022-12-29T14:12:41.576Z,99482.73
2022-12-29T14:15:29.843Z,99478.77
2022-12-29T14:18:19.737Z,99479.39
2022-12-29T14:21:11.829Z,99483.61
2022-12-29T14:24:22.861Z,99484.96
2022-12-29T14:27:25.325Z,99485.31
2022-12-29T14:30:31.832Z,99485.97
2022-12-29T14:33:22.324Z,99486.95
2022-12-29T14:36:21.868Z,99487.90
2022-12-29T14:39:24.404Z,99485.91
2022-12-29T14:42:14.685Z,99478.54
2022-12-29T14:45:07.439Z,99480.29
2022-12-29T14:47:56.264Z,99483.92
2022-12-29T14:50:45.370Z,99489.80
2022-12-29T14:53:44.215Z,99497.48
2022-12-29T14:56:33.752Z,99503.02
2022-12-29T14:59:23.092Z,99500.27
2022-12-29T15:02:19.836Z,99502.70
2022-12-29T15:05:20.859Z,99502.72
2022-12-29T15:08:09.963Z,99508.79
2022-12-29T15:11:00.439Z,99503.89
2022-12-29T15:13:49.446Z,99499.29
2022-12-29T15:16:38.517Z,99498.57
2022-12-29T15:19:27.712Z,99495.20
2022-12-29T15:22:16.405Z,99504.34
2022-12-29T15:25:05.445Z,99508.96
2022-12-29T15:27:56.260Z,99509.55
2022-12-29T15:30:52.704Z,99513.46
2022-12-29T15:33:41.835Z,99511.77
2022-12-29T15:36:37.507Z,99514.70
2022-12-29T15:39:29.015Z,99522.56
2022-12-29T15:42:21.952Z,99532.22
2022-12-29T15:45:12.276Z,99543.94
2022-12-29T15:48:01.640Z,99545.04
2022-12-29T15:50:50.792Z,99544.57
2022-12-29T15:53:39.553Z,99551.94
2022-12-29T15:56:30.384Z,99552.21
2022-12-29T15:59:28.802Z,99546.81
2022-12-29T16:02:17.612Z,99547.64
2022-12-29T16:05:17.841Z,99549.00
2022-12-29T16:08:22.478Z,99550.27
2022-12-29T16:11:19.291Z,99536.95
2022-12-29T16:14:09.724Z,99535.27
2022-12-29T16:16:59.265Z,99533.90
2022-12-29T16:19:51.213Z,99538.52
2022-12-29T16:22:40.956Z,99553.02
2022-12-29T16:25:31.878Z,99559.16
2022-12-29T16:28:22.384Z,99559.85
2022-12-29T16:31:18.931Z,99563.95
2022-12-29T16:34:14.072Z,99567.70
2022-12-29T16:37:03.137Z,99561.77
2022-12-29T16:39:51.499Z,99565.41
2022-12-29T16:42:51.708Z,99573.81
2022-12-29T16:45:54.682Z,99590.75
2022-12-29T16:48:48.602Z,99599.52
2022-12-29T16:51:37.950Z,99604.91
2022-12-29T16:54:31.088Z,99601.55
2022-12-29T16:57:22.943Z,99600.66
2022-12-29T17:00:20.411Z,99601.33
2022-12-29T17:03:11.241Z,99599.20
2022-12-29T17:05:59.325Z,99613.17
2022-12-29T17:08:48.228Z,99619.68
2022-12-29T17:12:00.429Z,99622.55
2022-12-29T17:14:53.246Z,99628.52
2022-12-29T17:17:42.480Z,99625.48
2022-12-29T17:20:31.352Z,99636.73
2022-12-29T17:23:26.117Z,99644.81
2022-12-29T17:26:15.104Z,99645.62
2022-12-29T17:29:03.790Z,99650.13
2022-12-29T17:31:53.883Z,99651.30
2022-12-29T17:34:42.338Z,99649.95
2022-12-29T17:37:32.625Z,99652.13
2022-12-29T17:40:21.755Z,99652.55
2022-12-29T17:43:13.057Z,99652.00
2022-12-29T17:46:01.582Z,99651.80
2022-12-29T17:48:53.789Z,99652.08
2022-12-29T17:51:43.123Z,99661.13
2022-12-29T17:54:31.521Z,99661.00
2022-12-29T17:57:20.275Z,99657.26
2022-12-29T18:00:14.070Z,99654.51
2022-12-29T18:03:02.657Z,99655.07
2022-12-29T18:05:50.980Z,99652.85
2022-12-29T18:08:40.136Z,99644.56
2022-12-29T18:11:28.412Z,99644.27
2022-12-29T18:14:17.216Z,99651.27
2022-12-29T18:17:11.922Z,99647.98
2022-12-29T18:19:59.950Z,99652.23
2022-12-29T18:22:48.446Z,99648.90
2022-12-29T18:25:40.302Z,99649.63
2022-12-29T18:28:28.775Z,99641.61
2022-12-29T18:31:18.841Z,99640.41
2022-12-29T18:34:13.514Z,99644.45
2022-12-29T18:37:02.480Z,99644.30
2022-12-29T18:39:51.078Z,99647.71
2022-12-29T18:42:39.545Z,99643.08
2022-12-29T18:45:28.047Z,99635.27
2022-12-29T18:48:17.390Z,99622.57
2022-12-29T18:51:05.999Z,99627.08
2022-12-29T18:53:54.932Z,99625.13
2022-12-29T18:56:43.406Z,99620.38
2022-12-29T18:59:31.803Z,99624.01
2022-12-29T19:02:20.451Z,99622.52
2022-12-29T19:05:18.081Z,99620.87
2022-12-29T19:08:06.987Z,99621.33
2022-12-29T19:10:55.376Z,99615.06
2022-12-29T19:13:43.706Z,99609.50
2022-12-29T19:16:32.613Z,99596.73
2022-12-29T19:19:20.894Z,99592.60
2022-12-29T19:22:09.420Z,99591.35
2022-12-29T19:25:00.230Z,99585.71
2022-12-29T19:27:48.907Z,99581.36
2022-12-29T19:30:37.302Z,99573.85
2022-12-29T19:33:25.955Z,99566.35
2022-12-29T19:36:15.928Z,99552.94
2022-12-29T19:39:04.209Z,99547.23
2022-12-29T19:41:52.603Z,99534.34
2022-12-29T19:44:41.125Z,99526.05
2022-12-29T19:47:32.079Z,99523.36
2022-12-29T19:50:21.069Z,99512.91
2022-12-29T19:53:09.444Z,99502.08
2022-12-29T19:55:57.938Z,99490.96
2022-12-29T19:58:47.779Z,99477.94
2022-12-29T20:01:36.566Z,99472.00
2022-12-29T20:04:25.058Z,99468.27
2022-12-29T20:07:17.520Z,99471.78
2022-12-29T20:10:07.745Z,99474.13
2022-12-29T20:12:56.327Z,99479.17
2022-12-29T20:15:44.776Z,99475.38
2022-12-29T20:18:34.842Z,99476.50
2022-12-29T20:21:23.712Z,99475.05
2022-12-29T20:24:12.341Z,99473.45
2022-12-29T20:27:02.451Z,99468.61
2022-12-29T20:29:50.577Z,99457.25
2022-12-29T20:32:39.026Z,99445.90
2022-12-29T20:35:27.648Z,99434.73
2022-12-29T20:38:16.541Z,99440.75
2022-12-29T20:41:05.358Z,99441.23
2022-12-29T20:43:53.952Z,99430.91
2022-12-29T20:46:44.284Z,99422.38
2022-12-29T20:49:34.795Z,99406.96
2022-12-29T20:52:22.884Z,99395.02
2022-12-29T20:55:11.906Z,99396.96
2022-12-29T21:01:10.511Z,99389.89
2022-12-29T21:03:59.477Z,99387.27
2022-12-29T21:06:47.685Z,99379.16
2022-12-29T21:09:36.262Z,99371.06
2022-12-29T21:12:24.697Z,99362.56
2022-12-29T21:15:14.951Z,99356.21
2022-12-29T21:18:03.469Z,99350.45
2022-12-29T21:20:55.776Z,99345.00
2022-12-29T21:23:44.205Z,99328.80
2022-12-29T21:26:33.813Z,99319.33
2022-12-29T21:29:22.048Z,99309.52
2022-12-29T21:32:10.495Z,99300.16
2022-12-29T21:34:59.318Z,99294.52
2022-12-29T21:37:47.883Z,99285.77
2022-12-29T21:40:37.080Z,99275.21
2022-12-29T21:43:25.878Z,99262.73
2022-12-29T21:46:14.347Z,99256.10
2022-12-29T21:49:03.394Z,99238.17
2022-12-29T21:51:53.132Z,99233.65
2022-12-29T21:55:00.281Z,99223.31
2022-12-29T21:58:09.256Z,99208.94
2022-12-29T22:01:16.323Z,99190.02
2022-12-29T22:04:23.781Z,99175.81
2022-12-29T22:07:30.678Z,99153.97
2022-12-29T22:10:37.597Z,99135.71
2022-12-29T22:13:26.057Z,99127.92
2022-12-29T22:16:15.109Z,99113.45
2022-12-29T22:19:03.811Z,99096.80
2022-12-29T22:21:52.176Z,99079.44
2022-12-29T22:24:40.709Z,99067.53
2022-12-29T22:27:29.200Z,99050.81
2022-12-29T22:30:18.846Z,99033.10
2022-12-29T22:33:09.774Z,99011.88
2022-12-29T22:35:58.249Z,98992.32
2022-12-29T22:38:46.779Z,98973.33
2022-12-29T22:41:35.281Z,98965.64
2022-12-29T22:44:23.673Z,98960.63
2022-12-29T22:47:12.091Z,98941.95
2022-12-29T22:50:00.598Z,98926.80
2022-12-29T22:52:49.028Z,98917.44
2022-12-29T22:55:37.420Z,98905.32
2022-12-29T22:58:26.111Z,98886.33
2022-12-29T23:01:15.764Z,98874.45
2022-12-29T23:04:45.425Z,98873.71
2022-12-29T23:07:13.848Z,98838.65
2022-12-29T23:10:02.377Z,98830.20
2022-12-29T23:12:50.890Z,98814.20
2022-12-29T23:15:39.476Z,98817.23
2022-12-29T23:18:28.027Z,98804.26
2022-12-29T23:21:17.776Z,98800.73
2022-12-29T23:24:06.267Z,98800.61
2022-12-29T23:26:54.885Z,98800.88
2022-12-29T23:29:43.377Z,98794.73
2022-12-29T23:32:31.916Z,98770.71
2022-12-29T23:35:20.491Z,98750.89
2022-12-29T23:38:09.192Z,98743.09
2022-12-29T23:40:57.704Z,98736.40
2022-12-29T23:43:46.334Z,98733.77
2022-12-29T23:46:35.728Z,98720.27
2022-12-29T23:49:24.392Z,98719.45
2022-12-29T23:52:12.869Z,98702.59
2022-12-29T23:55:01.366Z,98705.92
2022-12-29T23:57:49.861Z,98697.11
